createdAt,value
2022-11-23T00:00:24.077Z,92.63
2022-11-23T00:05:27.858Z,92.73
2022-11-23T00:10:29.701Z,92.96
2022-11-23T00:15:32.597Z,92.97
2022-11-23T00:20:34.451Z,92.96
2022-11-23T00:25:36.489Z,93.10
2022-11-23T00:30:38.517Z,93.00
2022-11-23T00:35:40.378Z,93.11
2022-11-23T00:40:42.233Z,93.12
2022-11-23T00:45:44.324Z,93.27
2022-11-23T00:50:46.158Z,93.26
2022-11-23T00:55:55.518Z,93.28
2022-11-23T01:01:12.841Z,93.20
2022-11-23T01:06:17.862Z,93.24
2022-11-23T01:11:21.901Z,93.26
2022-11-23T01:16:29.665Z,93.44
2022-11-23T01:21:33.460Z,93.51
2022-11-23T01:26:35.333Z,93.93
2022-11-23T01:31:40.600Z,93.77
2022-11-23T01:36:49.037Z,93.65
2022-11-23T01:41:50.936Z,93.62
2022-11-23T01:46:52.936Z,93.64
2022-11-23T01:51:59.744Z,93.75
2022-11-23T01:57:06.629Z,93.81
2022-11-23T02:02:08.718Z,93.79
2022-11-23T02:07:11.627Z,93.85
2022-11-23T02:12:14.524Z,94.01
2022-11-23T02:17:19.088Z,94.13
2022-11-23T02:22:38.012Z,94.39
2022-11-23T02:27:46.776Z,94.32
2022-11-23T02:32:49.176Z,94.29
2022-11-23T02:37:53.799Z,94.44
2022-11-23T02:42:55.727Z,94.53
2022-11-23T02:47:57.556Z,94.63
2022-11-23T02:52:59.435Z,94.65
2022-11-23T02:58:01.890Z,94.84
2022-11-23T03:03:04.952Z,94.88
2022-11-23T03:08:08.050Z,94.77
2022-11-23T03:13:09.988Z,94.90
2022-11-23T03:18:13.623Z,94.77
2022-11-23T03:23:15.582Z,94.64
2022-11-23T03:28:19.122Z,94.61
2022-11-23T03:33:21.510Z,94.83
2022-11-23T03:38:23.889Z,94.94
2022-11-23T03:43:26.367Z,94.99
2022-11-23T03:48:28.250Z,94.82
2022-11-23T03:53:30.145Z,95.08
2022-11-23T03:58:32.106Z,94.95
2022-11-23T04:03:34.517Z,94.93
2022-11-23T04:08:56.203Z,94.78
2022-11-23T04:14:19.695Z,94.90
2022-11-23T04:19:22.996Z,94.86
2022-11-23T04:24:24.923Z,94.86
2022-11-23T04:29:28.625Z,94.94
2022-11-23T04:34:31.387Z,94.99
2022-11-23T04:39:35.360Z,94.82
2022-11-23T04:45:03.831Z,94.82
2022-11-23T04:50:06.434Z,95.01
2022-11-23T04:55:09.059Z,95.26
2022-11-23T05:00:15.832Z,95.14
2022-11-23T05:05:18.301Z,95.41
2022-11-23T05:10:20.232Z,95.34
2022-11-23T05:15:22.628Z,95.60
2022-11-23T05:20:25.391Z,95.65
2022-11-23T05:25:27.580Z,95.80
2022-11-23T05:30:36.622Z,95.95
2022-11-23T05:35:39.302Z,96.00
2022-11-23T05:40:41.183Z,95.90
2022-11-23T05:45:43.721Z,95.85
2022-11-23T05:50:46.368Z,96.02
2022-11-23T05:56:08.292Z,96.18
2022-11-23T06:01:16.826Z,96.35
2022-11-23T06:06:19.164Z,96.53
2022-11-23T06:11:21.063Z,96.46
2022-11-23T06:16:23.147Z,96.46
2022-11-23T06:21:34.008Z,96.47
2022-11-23T06:26:36.106Z,96.54
2022-11-23T06:31:39.035Z,96.62
2022-11-23T06:36:41.107Z,96.79
2022-11-23T06:41:43.607Z,96.41
2022-11-23T06:46:45.790Z,96.32
2022-11-23T06:51:48.231Z,96.70
2022-11-23T06:56:50.091Z,96.95
2022-11-23T07:01:52.379Z,96.85
2022-11-23T07:06:54.836Z,96.86
2022-11-23T07:12:05.899Z,96.86
2022-11-23T07:17:07.853Z,96.76
2022-11-23T07:22:12.916Z,96.57
2022-11-23T07:27:17.318Z,96.69
2022-11-23T07:32:19.555Z,96.65
2022-11-23T07:37:21.642Z,96.57
2022-11-23T07:42:33.003Z,96.41
2022-11-23T07:47:36.980Z,96.39
2022-11-23T07:52:40.563Z,96.45
2022-11-23T07:57:42.344Z,96.47
2022-11-23T08:03:04.096Z,95.93
2022-11-23T08:08:06.064Z,95.95
2022-11-23T08:13:07.860Z,95.88
2022-11-23T08:18:10.078Z,95.70
2022-11-23T08:23:11.903Z,95.28
2022-11-23T08:28:13.800Z,95.26
2022-11-23T08:33:15.975Z,95.19
2022-11-23T08:38:17.818Z,95.05
2022-11-23T08:43:19.635Z,95.17
2022-11-23T08:48:21.560Z,94.84
2022-11-23T08:53:23.359Z,94.56
2022-11-23T08:58:25.186Z,94.42
2022-11-23T09:03:27.150Z,94.08
2022-11-23T09:08:29.263Z,93.85
2022-11-23T09:13:31.103Z,93.53
2022-11-23T09:18:36.697Z,93.78
2022-11-23T09:23:38.652Z,93.94
2022-11-23T09:28:44.673Z,93.44
2022-11-23T09:33:47.102Z,93.65
2022-11-23T09:38:56.635Z,93.52
2022-11-23T09:44:35.664Z,93.11
2022-11-23T09:50:15.915Z,93.02
2022-11-23T09:55:30.657Z,93.17
2022-11-23T10:00:39.019Z,92.76
2022-11-23T10:05:41.021Z,92.65
2022-11-23T10:11:29.633Z,92.20
2022-11-23T10:16:45.397Z,92.14
2022-11-23T10:21:47.204Z,92.35
2022-11-23T10:26:50.277Z,91.93
2022-11-23T10:31:56.979Z,91.78
2022-11-23T10:36:59.340Z,91.45
2022-11-23T10:42:09.916Z,91.40
2022-11-23T10:47:11.703Z,90.97
2022-11-23T10:52:29.938Z,91.15
2022-11-23T10:57:42.450Z,91.05
2022-11-23T11:02:47.678Z,90.88
2022-11-23T11:07:49.725Z,90.65
2022-11-23T11:12:51.964Z,90.32
2022-11-23T11:17:58.650Z,89.81
2022-11-23T11:23:04.536Z,89.82
2022-11-23T11:28:42.969Z,89.39
2022-11-23T11:34:14.463Z,89.26
2022-11-23T11:39:28.097Z,88.53
2022-11-23T11:44:36.357Z,88.15
2022-11-23T11:49:45.561Z,88.04
2022-11-23T11:55:04.609Z,87.38
2022-11-23T12:00:13.499Z,87.31
2022-11-23T12:05:25.032Z,87.03
2022-11-23T12:10:35.548Z,86.89
2022-11-23T12:15:50.575Z,86.28
2022-11-23T12:21:06.788Z,86.14
2022-11-23T12:26:42.606Z,86.27
2022-11-23T12:31:50.724Z,86.00
2022-11-23T12:37:05.255Z,85.92
2022-11-23T12:42:18.303Z,85.88
2022-11-23T12:47:41.202Z,85.87
2022-11-23T12:53:17.643Z,85.81
2022-11-23T12:58:27.511Z,86.16
2022-11-23T13:03:59.556Z,85.91
2022-11-23T13:09:35.958Z,85.71
2022-11-23T13:14:49.697Z,85.85
2022-11-23T13:20:28.713Z,85.78
2022-11-23T13:25:30.633Z,85.79
2022-11-23T13:31:15.028Z,85.84
2022-11-23T13:36:07.452Z,86.14
2022-11-23T13:41:34.589Z,86.21
2022-11-23T13:46:37.298Z,86.14
2022-11-23T13:51:39.214Z,86.42
2022-11-23T13:56:45.128Z,86.93
2022-11-23T14:02:12.678Z,86.72
2022-11-23T14:07:20.704Z,86.77
2022-11-23T14:12:46.911Z,87.13
2022-11-23T14:18:51.094Z,87.10
2022-11-23T14:24:33.305Z,87.12
2022-11-23T14:30:05.530Z,87.01
2022-11-23T14:35:40.630Z,86.90
2022-11-23T14:41:21.556Z,86.83
2022-11-23T14:46:25.934Z,87.20
2022-11-23T14:51:28.778Z,87.44
2022-11-23T14:56:38.027Z,87.34
2022-11-23T15:01:47.189Z,87.36
2022-11-23T15:06:53.444Z,87.15
2022-11-23T15:12:07.271Z,87.22
2022-11-23T15:17:17.574Z,87.53
2022-11-23T15:22:20.494Z,87.55
2022-11-23T15:27:28.591Z,87.72
2022-11-23T15:32:34.368Z,87.59
2022-11-23T15:37:44.651Z,87.80
2022-11-23T15:42:49.827Z,87.85
2022-11-23T15:47:51.628Z,88.02
2022-11-23T15:52:53.490Z,88.28
2022-11-23T15:57:56.796Z,88.32
2022-11-23T16:03:27.150Z,88.22
2022-11-23T16:08:29.665Z,88.27
2022-11-23T16:13:36.692Z,88.22
2022-11-23T16:18:44.859Z,88.35
2022-11-23T16:23:54.411Z,88.47
2022-11-23T16:28:58.676Z,88.54
2022-11-23T16:34:00.462Z,88.58
2022-11-23T16:39:05.672Z,88.55
2022-11-23T16:44:08.004Z,88.63
2022-11-23T16:49:19.871Z,88.75
2022-11-23T16:54:24.854Z,88.55
2022-11-23T16:59:27.420Z,88.63
2022-11-23T17:04:29.341Z,88.78
2022-11-23T17:09:31.605Z,88.92
2022-11-23T17:14:38.191Z,89.10
2022-11-23T17:19:40.079Z,89.27
2022-11-23T17:24:42.784Z,89.18
2022-11-23T17:29:45.915Z,89.31
2022-11-23T17:34:47.744Z,89.26
2022-11-23T17:39:50.224Z,89.47
2022-11-23T17:44:52.048Z,89.43
2022-11-23T17:49:53.959Z,89.52
2022-11-23T17:54:55.775Z,89.53
2022-11-23T18:00:01.984Z,89.75
2022-11-23T18:05:19.726Z,90.05
2022-11-23T18:10:23.620Z,90.02
2022-11-23T18:15:25.396Z,90.18
2022-11-23T18:20:27.202Z,90.34
2022-11-23T18:25:29.114Z,90.28
2022-11-23T18:30:31.024Z,90.36
2022-11-23T18:35:32.825Z,90.29
2022-11-23T18:40:34.728Z,90.39
2022-11-23T18:45:36.585Z,90.45
2022-11-23T18:50:38.389Z,90.48
2022-11-23T18:55:40.213Z,90.57
2022-11-23T19:00:42.404Z,90.80
2022-11-23T19:05:44.238Z,90.69
2022-11-23T19:10:46.402Z,90.69
2022-11-23T19:15:48.268Z,90.90
2022-11-23T19:20:50.111Z,90.88
2022-11-23T19:25:51.980Z,90.91
2022-11-23T19:30:53.865Z,91.10
2022-11-23T19:35:55.676Z,91.17
2022-11-23T19:40:57.501Z,91.18
2022-11-23T19:46:01.789Z,91.22
2022-11-23T19:51:04.893Z,91.29
2022-11-23T19:56:15.428Z,91.61
2022-11-23T20:01:19.251Z,91.52
2022-11-23T20:06:26.373Z,91.73
2022-11-23T20:11:30.440Z,91.58
2022-11-23T20:16:33.158Z,91.51
2022-11-23T20:21:37.017Z,91.74
2022-11-23T20:26:39.791Z,91.56
2022-11-23T20:31:41.865Z,91.77
2022-11-23T20:36:43.853Z,91.87
2022-11-23T20:41:46.019Z,91.99
2022-11-23T20:47:04.075Z,91.98
2022-11-23T20:52:06.190Z,91.89
2022-11-23T20:57:07.983Z,92.00
2022-11-23T21:02:09.911Z,92.05
2022-11-23T21:07:12.122Z,92.17
2022-11-23T21:12:52.585Z,92.18
2022-11-23T21:17:54.395Z,92.28
2022-11-23T21:22:56.598Z,92.45
2022-11-23T21:27:58.447Z,92.31
2022-11-23T21:33:00.386Z,92.42
2022-11-23T21:38:02.191Z,92.36
2022-11-23T21:43:04.390Z,92.47
2022-11-23T21:48:07.922Z,92.71
2022-11-23T21:53:09.777Z,92.79
2022-11-23T21:58:11.956Z,92.60
2022-11-23T22:03:13.864Z,92.72
2022-11-23T22:08:31.057Z,92.63
2022-11-23T22:13:39.810Z,92.64
2022-11-23T22:18:41.997Z,92.79
2022-11-23T22:23:44.923Z,92.49
2022-11-23T22:28:48.710Z,92.50
2022-11-23T22:33:53.188Z,92.53
2022-11-23T22:39:03.105Z,92.59
2022-11-23T22:44:07.634Z,92.66
2022-11-23T22:49:09.614Z,92.69
2022-11-23T22:54:11.428Z,92.52
2022-11-23T22:59:13.308Z,92.43
2022-11-23T23:04:15.159Z,92.49
2022-11-23T23:09:17.260Z,92.72
2022-11-23T23:14:19.095Z,92.75
2022-11-23T23:19:21.620Z,92.88
2022-11-23T23:24:23.475Z,92.45
2022-11-23T23:29:25.442Z,92.58
2022-11-23T23:34:27.265Z,92.46
2022-11-23T23:39:29.139Z,92.40
2022-11-23T23:44:31.406Z,92.31
2022-11-23T23:49:34.604Z,92.47
2022-11-23T23:54:36.593Z,92.29
2022-11-23T23:59:38.500Z,92.14
